Terminal Aerodrome Forecast
Issued by NWS

Home | Current Version | Previous Version | Graphics & Text | Print | Product List | Glossary On
Versions: 1 2 3 4 5 6 7 8 9 10 11 12 13 14 15 16 17 18 19 20 21
292
FTUS43 KABR 241138
TAFPIR
TAF
KPIR 241138Z 2412/2512 VRB06KT P6SM VCSH FEW110 BKN150
     FM241400 33011KT P6SM SCT150 BKN250
     FM241800 32015G23KT P6SM SCT250
     FM250100 35011KT P6SM SCT015 SCT250
     FM250300 02009KT P6SM OVC015=

USA.gov is the U.S. government's official web portal to all federal, state and local government web resources and services.